Overview Statistics Trail Chart Weather Telemetry Raw packets
 

This is the latest recevied weather packets stored in our database for station/object DL8BGD. If no packets are shown the sender has not sent any weather packets the latest 10 day(s).

<< 7 8 9 10 11 12 13 >>
Time Temp. Humidity Pressure Rain* Wind** Luminosity Snow
1788100236 26.67° C 39% 1019.2 hPa 0 mm - - -
1788099636 26.67° C 37% 1019.2 hPa 0 mm - - -
1788099036 26.67° C 37% 1019.2 hPa 0 mm - - -
1788098435 26.67° C 37% 1019.4 hPa 0 mm - - -
1788097835 26.67° C 37% 1019.4 hPa 0 mm - - -
1788097234 27.22° C 37% 1019.6 hPa 0 mm - - -
1788096634 27.22° C 36% 1019.6 hPa 0 mm - - -
1788096034 26.67° C 36% 1019.7 hPa 0 mm - - -
1788095433 27.22° C 35% 1019.8 hPa 0 mm - - -
1788094833 26.67° C 36% 1020 hPa 0 mm - - -
1788094233 26.67° C 38% 1020.2 hPa 0 mm - - -
1788093632 26.67° C 36% 1020.2 hPa 0 mm - - -
1788093032 26.67° C 35% 1020.3 hPa 0 mm - - -
1788092432 26.11° C 36% 1020.4 hPa 0 mm - - -
1788091831 26.67° C 36% 1020.5 hPa 0 mm - - -
1788091230 26.67° C 35% 1020.6 hPa 0 mm - - -
1788090630 26.11° C 37% 1020.7 hPa 0 mm - - -
1788090029 26.67° C 38% 1020.7 hPa 0 mm - - -
1788089429 26.67° C 36% 1020.8 hPa 0 mm - - -
1788088828 26.67° C 36% 1020.9 hPa 0 mm - - -
1788088228 27.78° C 33% 1021 hPa 0 mm - - -
1788087627 27.22° C 36% 1021 hPa 0 mm - - -
1788068513 13.89° C 82% 1022.8 hPa 0 mm - - -
1788067912 13.33° C 83% 1022.8 hPa 0 mm - - -
1788067312 13.33° C 84% 1022.8 hPa 0 mm - - -

* Rain since midnight (hover to see other rain measurements)
** Current wind speed in m/s (hover to see current wind gust speed)